EW1786 Bologna IT current weather conditions

sailwx.info

Wind from 283 at 3 knots gusting 5

Air temperature 7.8° C
Dewpoint 7.0° C

Last reported at 2019-Dec-09 11:56 UTC.
Time now 2019-Dec-09 12:50 UTC

Location: N 44°27' E 011°23'.
View on Google Maps.

See reports from other nearby stations

  
Tides and Currents Weather Stations Pressure Air Temp Water Temp Dewpoint Dewpoint Depression Visibility Wind Speed Wind Dir Waves Ship Positions
date/time (UTC)wind fromknots sea level pressurealtimeterstation pressurevisibilityair tempwater tempwave heightnotes
2019-Dec-09 11:56 283 3 gusting 5 7.8
2019-Dec-09 11:46 279 3 gusting 6 7.8
2019-Dec-09 11:36 203 0 gusting 3 7.8
2019-Dec-09 11:26 7.2
2019-Dec-09 11:16 293 7.2
2019-Dec-09 11:06 7.2
2019-Dec-09 10:56 293 7.2
2019-Dec-09 10:46 293 7.2
2019-Dec-09 10:36 6.7
2019-Dec-09 10:26 293 16 gusting 99 6.7
2019-Dec-09 10:16 6.7
2019-Dec-09 10:06 203 6.7
2019-Dec-09 09:56 253 0 gusting 1 6.7
2019-Dec-09 09:46 203 6.7
2019-Dec-09 09:36 203 6.1
2019-Dec-09 09:26 203 14 gusting 99 6.1
2019-Dec-09 09:16 200 2 gusting 4 6.1
2019-Dec-09 09:06 203 16 gusting 99 6.1
2019-Dec-09 08:56 203 2 gusting 5 6.1
2019-Dec-09 08:46 270 6.1
2019-Dec-09 08:36 237 0 gusting 2 6.1
2019-Dec-09 08:26 6.1
2019-Dec-09 08:16 270 0 gusting 1 6.1
2019-Dec-09 08:06 6.1
2019-Dec-09 07:56 5.6
2019-Dec-09 07:46 180 0 gusting 1 5.6
2019-Dec-09 07:36 5.6
2019-Dec-09 07:26 208 18 gusting 99 5.6
2019-Dec-09 07:16 285 26 gusting 49 5.6
2019-Dec-09 07:06 315 29 gusting 49 5.6
2019-Dec-09 06:56 315 25 gusting 49 5.6
2019-Dec-09 06:46 5.6
2019-Dec-09 06:36 315 16 gusting 49 5.6
2019-Dec-09 06:26 270 25 gusting 49 5.6
2019-Dec-09 06:16 5.6
2019-Dec-09 06:06 280 49 gusting 49 5.6
2019-Dec-09 05:56 285 14 gusting 49 6.1
2019-Dec-09 05:46 315 9 gusting 49 5.6
2019-Dec-09 05:36 5.6
2019-Dec-09 05:26 023 0 gusting 1 5.6
2019-Dec-09 05:16 270 37 gusting 49 5.6
2019-Dec-09 05:06 279 31 gusting 49 5.6
2019-Dec-09 04:56 270 19 gusting 49 5.6
2019-Dec-09 04:46 270 25 gusting 49 5.0
2019-Dec-09 04:36 276 43 gusting 49 5.0
2019-Dec-09 04:26 270 8 gusting 49 5.6
2019-Dec-09 04:16 225 11 gusting 49 5.6
2019-Dec-09 04:06 203 1 gusting 1 5.6
2019-Dec-09 03:56 5.0
2019-Dec-09 03:46 5.0
2019-Dec-09 03:36 5.0
2019-Dec-09 03:26 5.6
2019-Dec-09 03:16 270 49 gusting 49 5.0
2019-Dec-09 03:06 270 49 gusting 49 5.0
2019-Dec-09 02:56 5.6
2019-Dec-09 02:46 5.6
2019-Dec-09 02:36 203 0 gusting 1 5.0
2019-Dec-09 02:26 180 0 gusting 1 4.4
2019-Dec-09 02:16 203 1 gusting 3 4.4
2019-Dec-09 02:06 203 0 gusting 1 3.9
2019-Dec-09 01:56 169 0 gusting 1 3.9
2019-Dec-09 01:46 203 0 gusting 4 3.9
2019-Dec-09 01:36 3.9
2019-Dec-09 01:26 203 0 gusting 1 4.4
2019-Dec-09 01:16 4.4
2019-Dec-09 01:06 203 5.0
2019-Dec-09 00:56 4.4
2019-Dec-09 00:46 4.4
2019-Dec-09 00:36 203 5.0
2019-Dec-09 00:26 203 0 gusting 1 4.4
2019-Dec-09 00:16 4.4
2019-Dec-09 00:06 203 0 gusting 2 5.0
2019-Dec-08 23:56 203 0 gusting 1 5.0
2019-Dec-08 23:46 5.0
2019-Dec-08 23:36 203 0 gusting 0 5.0
2019-Dec-08 23:26 5.6
2019-Dec-08 23:16 6.1
2019-Dec-08 23:06 6.1
2019-Dec-08 22:56 6.1
2019-Dec-08 22:46 6.7
2019-Dec-08 22:36 180 6.7
2019-Dec-08 22:26 7.2
2019-Dec-08 22:16 203 7.2
2019-Dec-08 22:06 203 7.2
2019-Dec-08 21:56 203 7.2
2019-Dec-08 21:46 7.2
2019-Dec-08 21:36 7.8
2019-Dec-08 21:26 7.2
2019-Dec-08 21:16 7.8
2019-Dec-08 21:06 7.8
2019-Dec-08 20:56 7.8
2019-Dec-08 20:46 7.8
2019-Dec-08 20:36 180 5 gusting 49 7.8
2019-Dec-08 20:26 180 4 gusting 49 7.8
2019-Dec-08 20:16 7.8
2019-Dec-08 20:06 7.8
2019-Dec-08 19:56 180 4 gusting 49 7.8
2019-Dec-08 19:46 7.8
2019-Dec-08 19:36 7.8
2019-Dec-08 19:26 7.8
2019-Dec-08 19:16 7.8
2019-Dec-08 19:06 8.3
2019-Dec-08 18:56 8.3
2019-Dec-08 18:46 8.3
2019-Dec-08 18:36 023 0 gusting 1 8.3
2019-Dec-08 18:26 8.3
2019-Dec-08 18:16 023 8.3
2019-Dec-08 18:06 8.3
2019-Dec-08 17:56 8.3
2019-Dec-08 17:46 8.3
2019-Dec-08 17:36 8.3
2019-Dec-08 17:26 8.3
2019-Dec-08 17:16 8.3
2019-Dec-08 17:06 8.9
2019-Dec-08 16:56 8.9
2019-Dec-08 16:46 8.9
2019-Dec-08 16:36 8.9
2019-Dec-08 16:26 023 8.9
2019-Dec-08 16:16 023 9.4
2019-Dec-08 16:06 023 9.4
2019-Dec-08 15:56 023 9.4
2019-Dec-08 15:46 023 0 gusting 1 9.4
2019-Dec-08 15:36 023 1 gusting 1 9.4
2019-Dec-08 15:26 9.4
2019-Dec-08 15:16 10.0
2019-Dec-08 15:06 023 0 gusting 2 10.0
2019-Dec-08 14:56 10.0
2019-Dec-08 14:46 023 10.0
2019-Dec-08 14:36 023 1 gusting 2 10.0
2019-Dec-08 14:26 10.0
2019-Dec-08 14:16 10.0
2019-Dec-08 14:06 023 10.0
2019-Dec-08 13:56 10.0
2019-Dec-08 13:46 005 1 gusting 2 10.0
2019-Dec-08 13:36 023 0 gusting 1 10.0
2019-Dec-08 13:26 049 1 gusting 3 10.0
2019-Dec-08 13:16 023 3 gusting 5 10.0
2019-Dec-08 13:06 015 1 gusting 4 10.0
2019-Dec-08 12:56 033 4 gusting 5 10.0
2019-Dec-08 12:46 041 2 gusting 4 10.6
2019-Dec-08 12:36 023 2 gusting 3 10.0
2019-Dec-08 12:26 017 2 gusting 5 10.0
2019-Dec-08 12:16 10.0
2019-Dec-08 12:06 002 1 gusting 3 10.6
2019-Dec-08 11:56 113 0 gusting 1 10.0
2019-Dec-08 11:46 344 1 gusting 2 10.0
2019-Dec-08 11:36 041 1 gusting 1 10.0
2019-Dec-08 11:26 027 0 gusting 2 9.4
2019-Dec-08 11:16 176 6 gusting 49 9.4
2019-Dec-08 11:06 180 6 gusting 49 9.4
2019-Dec-08 10:56 180 8 gusting 49 9.4
2019-Dec-08 10:46 280 5 gusting 49 8.9
2019-Dec-08 10:36 8.3
2019-Dec-08 10:26 083 0 gusting 1 8.3
2019-Dec-08 10:16 7.8
2019-Dec-08 10:06 316 0 gusting 1 7.8
2019-Dec-08 09:56 179 10 gusting 49 7.8
2019-Dec-08 09:46 7.8
2019-Dec-08 09:36 293 0 gusting 1 7.2
2019-Dec-08 09:26 7.2
2019-Dec-08 09:16 7.2
2019-Dec-08 09:06 6.7
2019-Dec-08 08:56 203 6.7
2019-Dec-08 08:46 203 0 gusting 1 6.1
2019-Dec-08 08:36 6.1
2019-Dec-08 08:26 5.6
2019-Dec-08 08:16 203 0 gusting 2 5.6
2019-Dec-08 08:06 5.6
2019-Dec-08 07:56 5.6
2019-Dec-08 07:46 5.0
2019-Dec-08 07:36 5.0
2019-Dec-08 07:26 5.0
2019-Dec-08 07:16 4.4
2019-Dec-08 07:06 5.0
2019-Dec-08 06:56 5.0
2019-Dec-08 06:46 5.0
2019-Dec-08 06:36 5.0
2019-Dec-08 06:26 5.0
2019-Dec-08 06:16 5.0
2019-Dec-08 06:06 4.4
2019-Dec-08 05:56 4.4
2019-Dec-08 05:46 4.4
2019-Dec-08 05:36 3.9
2019-Dec-08 05:26 4.4
2019-Dec-08 05:16 4.4
2019-Dec-08 05:06 4.4
2019-Dec-08 04:56 203 19 gusting 99 5.0
2019-Dec-08 04:46 4.4
2019-Dec-08 04:36 203 3.9
2019-Dec-08 04:26 203 3.9
2019-Dec-08 04:16 203 3.9
2019-Dec-08 04:06 193 0 gusting 1 3.3
2019-Dec-08 03:56 203 3.3
2019-Dec-08 03:46 203 1 gusting 2 2.8
2019-Dec-08 03:36 209 1 gusting 2 2.8
2019-Dec-08 03:26 203 1 gusting 1 2.8
2019-Dec-08 03:16 203 0 gusting 1 2.8
2019-Dec-08 03:06 2.2
2019-Dec-08 02:56 203 0 gusting 1 2.2
2019-Dec-08 02:46 203 0 gusting 1 2.8
2019-Dec-08 02:36 270 2.8
2019-Dec-08 02:26 203 0 gusting 1 3.3
2019-Dec-08 02:16 3.3
2019-Dec-08 02:06 203 2.8
2019-Dec-08 01:56 2.8
2019-Dec-08 01:46 2.8
2019-Dec-08 01:36 3.3
2019-Dec-08 01:26 3.3
2019-Dec-08 01:16 3.3
2019-Dec-08 01:06 2.8
2019-Dec-08 00:56 3.3
2019-Dec-08 00:46 3.3
2019-Dec-08 00:36 203 0 gusting 1 3.3
2019-Dec-08 00:26 3.9
2019-Dec-08 00:16 3.9
2019-Dec-08 00:06 3.9
2019-Dec-07 23:56 180 0 gusting 1 3.9
2019-Dec-07 23:46 180 0 gusting 1 3.3
2019-Dec-07 23:36 200 0 gusting 1 3.3
2019-Dec-07 23:26 3.3
2019-Dec-07 23:16 203 0 gusting 2 3.9
2019-Dec-07 23:06 3.3
2019-Dec-07 22:56 195 0 gusting 2 3.3
2019-Dec-07 22:46 203 0 gusting 0 3.3
2019-Dec-07 22:36 3.9
2019-Dec-07 22:26 3.9
2019-Dec-07 22:16 3.9
2019-Dec-07 22:06 3.9
2019-Dec-07 21:56 3.9
2019-Dec-07 21:46 3.9
2019-Dec-07 21:36 180 3.9
2019-Dec-07 21:26 3.9
2019-Dec-07 21:16 3.9
2019-Dec-07 21:06 4.4
2019-Dec-07 20:56 4.4
2019-Dec-07 20:46 4.4
2019-Dec-07 20:36 4.4
2019-Dec-07 20:26 4.4
2019-Dec-07 20:16 5.0
2019-Dec-07 20:06 5.0
2019-Dec-07 19:56 5.6
2019-Dec-07 19:46 180 8 gusting 49 5.6
2019-Dec-07 19:36 180 4 gusting 49 5.6
2019-Dec-07 19:26 5.6
2019-Dec-07 19:16 180 4 gusting 49 5.6
2019-Dec-07 19:06 5.6
2019-Dec-07 18:56 5.0
2019-Dec-07 18:46 5.6
2019-Dec-07 18:36 180 5 gusting 49 5.6
2019-Dec-07 18:26 5.6
2019-Dec-07 18:16 5.6
2019-Dec-07 18:06 5.6
2019-Dec-07 17:56 6.1
2019-Dec-07 17:46 6.1
2019-Dec-07 17:36 113 0 gusting 1 6.1
2019-Dec-07 17:26 6.1
2019-Dec-07 17:16 6.1
2019-Dec-07 17:06 6.1
2019-Dec-07 16:56 6.7
2019-Dec-07 16:46 6.7
2019-Dec-07 16:36 6.7
2019-Dec-07 16:26 7.2
2019-Dec-07 16:16 095 0 gusting 1 7.2
2019-Dec-07 16:06 7.2
2019-Dec-07 15:56 090 1 gusting 1 7.2
2019-Dec-07 15:46 090 1 gusting 1 7.8
2019-Dec-07 15:36 090 1 gusting 1 8.3
2019-Dec-07 15:26 090 0 gusting 1 8.3
2019-Dec-07 15:16 8.3
2019-Dec-07 15:06 270 5 gusting 49 8.9
2019-Dec-07 14:56 273 5 gusting 49 9.4
2019-Dec-07 14:46 278 11 gusting 49 9.4
2019-Dec-07 14:36 270 4 gusting 49 9.4
2019-Dec-07 14:26 9.4
2019-Dec-07 14:16 270 4 gusting 49 10.0
2019-Dec-07 14:06 023 0 gusting 1 10.0
2019-Dec-07 13:56 10.0
2019-Dec-07 13:46 023 10.0
2019-Dec-07 13:36 272 4 gusting 49 10.0
2019-Dec-07 13:26 023 0 gusting 2 10.0
2019-Dec-07 13:16 270 4 gusting 49 10.0
2019-Dec-07 13:06 330 5 gusting 49 10.0
2019-Dec-07 12:56 296 9 gusting 49 9.4
2019-Dec-07 12:46 293 9.4
2019-Dec-07 12:36 351 1 gusting 2 9.4
2019-Dec-07 12:26 270 8 gusting 49 9.4
2019-Dec-07 12:16 270 5 gusting 49 9.4
2019-Dec-07 12:06 302 2 gusting 3 9.4